• Join FlightAware (Why Join?)
  • Login
  • US Flag 
03:49PM EDT


 

Airport Tracker/Info


-or-


 

Live Flight TrackerFlight Track Log ✈ UAL1197 ✈ 06-Jun-2013 ✈ KIAH - KTPA

Flight Track Log - Related Links

Times and Time Zones

All times are in EDT time to prevent confusion due to time zone crossing. See the UAL1197 flight status page for this flight to view local times or setup timezone preferences in your user account.

Time Position Orientation Groundspeed Altitude Reporting Facility
EDT Latitude Longitude Course Direction KTS MPH feet Rate Location/Type
08:15AM 29.9340 -95.3104 129° Southeast 215 247 1,900  Level FlightAware ADS-B
08:16AM 29.9245 -95.2969 129° Southeast 221 254 2,600 3,180 Climbing FlightAware ADS-B
08:16AM 29.9144 -95.2825 129° Southeast 223 257 3,500 2,760 Climbing FlightAware ADS-B
08:16AM 29.9037 -95.2676 130° Southeast 237 273 4,100 2,100 Climbing FlightAware ADS-B
08:16AM 29.8922 -95.2517 130° Southeast 259 298 4,600 2,640 Climbing FlightAware ADS-B
08:17AM 29.8699 -95.2207 130° Southeast 274 315 6,000 3,000 Climbing FlightAware ADS-B
08:18AM 29.8267 -95.1600 129° Southeast 291 335 8,600 3,000 Climbing FlightAware ADS-B
08:18AM 29.8243 -95.1562 126° Southeast 293 337 8,800 3,000 Climbing FlightAware ADS-B
08:18AM 29.8213 -95.1504 121° Southeast 295 339 9,000 3,000 Climbing FlightAware ADS-B
08:18AM 29.8190 -95.1451 117° Southeast 296 341 9,200 2,520 Climbing FlightAware ADS-B
08:18AM 29.8175 -95.1405 111° Southeast 296 341 9,300 2,640 Climbing FlightAware ADS-B
08:18AM 29.8151 -95.1313 105° East 297 342 9,600 3,300 Climbing FlightAware ADS-B
08:18AM 29.8142 -95.1267 103° East 298 343 9,800 2,520 Climbing FlightAware ADS-B
08:18AM 29.8134 -95.1205 98° East 300 345 9,900 1,680 Climbing FlightAware ADS-B
08:19AM 29.8163 -95.0617 86° East 333 383 10,900 1,800 Climbing FlightAware ADS-B
08:19AM 29.8200 -95.0058 86° East 357 411 11,900 2,340 Climbing FlightAware ADS-B
08:20AM 29.8237 -94.9477 86° East 364 419 13,300 2,820 Climbing FlightAware ADS-B
08:20AM 29.8275 -94.8887 86° East 369 425 14,800 2,700 Climbing FlightAware ADS-B
08:21AM 29.8351 -94.7676 86° East 388 447 17,400 2,220 Climbing FlightAware ADS-B
08:23AM 29.8512 -94.5081 86° East 424 488 21,700 1,980 Climbing FlightAware ADS-B
08:24AM 29.8553 -94.4393 86° East 436 502 22,500 1,740 Climbing FlightAware ADS-B
08:24AM 29.8595 -94.3677 86° East 443 510 23,500 1,860 Climbing FlightAware ADS-B
08:25AM 29.8617 -94.3127 90° East 448 516 24,200 1,860 Climbing FlightAware ADS-B
08:25AM 29.8597 -94.2381 92° East 451 519 25,200 2,040 Climbing FlightAware ADS-B
08:26AM 29.8552 -94.0909 92° East 449 517 27,400 2,100 Climbing FlightAware ADS-B
08:27AM 29.8566 -94.0203 87° East 444 511 28,400 1,560 Climbing FlightAware ADS-B
08:27AM 29.8640 -93.9490 83° East 445 512 29,000 540 Climbing FlightAware ADS-B
08:28AM 29.8716 -93.8779 83° East 446 513 29,000  Level FlightAware ADS-B
08:28AM 29.8794 -93.8040 83° East 446 513 29,000 240 Level FlightAware ADS-B
08:29AM 29.8870 -93.7324 83° East 454 522 29,300 960 Climbing FlightAware ADS-B
08:29AM 29.8965 -93.6432 83° East 456 525 30,100 1,320 Climbing FlightAware ADS-B
08:30AM 29.9051 -93.5606 83° East 461 531 30,900 1,500 Climbing FlightAware ADS-B
08:30AM 29.9127 -93.4871 83° East 460 529 31,700 1,800 Climbing FlightAware ADS-B
08:31AM 29.9201 -93.4147 83° East 454 522 32,700 1,260 Climbing FlightAware ADS-B
08:31AM 29.9277 -93.3407 83° East 449 517 33,000 180 Climbing FlightAware ADS-B
08:32AM 29.9393 -93.2269 83° East 448 516 33,000  Level FlightAware ADS-B
08:33AM 29.9466 -93.1547 83° East 450 518 33,000 840 Level FlightAware ADS-B
08:33AM 29.9540 -93.0808 83° East 445 512 33,900 1,740 Climbing FlightAware ADS-B
08:34AM 29.9618 -93.0033 83° East 436 502 34,900 960 Climbing FlightAware ADS-B
08:34AM 29.9688 -92.9320 84° East 435 501 35,000  Climbing FlightAware ADS-B
08:36AM 29.9789 -92.7961 84° East 432 497 34,900  Descending Houston Center
08:37AM 29.9897 -92.6594 85° East 431 496 35,000  Climbing Houston Center
08:38AM 30.0033 -92.4922 85° East 437 503 35,000  Level Houston Center
08:39AM 30.0147 -92.3533 85° East 437 503 35,000 -60 Level Houston Center
08:40AM 30.0258 -92.2133 85° East 439 505 34,900  Descending Houston Center
08:41AM 30.0356 -92.0744 85° East 436 502 35,000  Climbing Houston Center
08:42AM 30.0464 -91.9347 85° East 439 505 35,000 -60 Level Houston Center
08:43AM 30.0583 -91.7939 84° East 441 507 34,900 -60 Descending Houston Center
08:44AM 30.0678 -91.6372 86° East 434 499 34,900  Level Houston Center
08:45AM 30.0794 -91.4989 84° East 435 501 35,000  Climbing Houston Center
08:46AM 30.0881 -91.3603 86° East 434 499 35,000  Level Houston Center
08:51AM 30.1960 -90.6270 86° East 446 513 35,000  Level FlightAware
08:52AM 30.2219 -90.5214 74° East 448 516 35,000  Level FlightAware ADS-B
08:53AM 30.2510 -90.4000 74° East 450 518 35,000  Level FlightAware
08:53AM 30.2740 -90.3050 74° East 451 519 35,000  Level FlightAware
08:54AM 30.3010 -90.1930 74° East 450 518 35,000  Level FlightAware
08:55AM 30.3210 -90.1080 75° East 450 518 35,000  Level FlightAware
08:55AM 30.3450 -90.0080 74° East 450 518 35,000  Level FlightAware
08:56AM 30.3700 -89.9050 74° East 450 518 35,000  Level FlightAware
08:57AM 30.3920 -89.8120 75° East 449 517 35,000  Level FlightAware
08:58AM 30.4140 -89.7170 75° East 448 516 35,000  Level FlightAware
08:58AM 30.4370 -89.6180 75° East 447 514 35,000  Level FlightAware
08:59AM 30.4610 -89.5170 75° East 446 513 35,000  Level FlightAware
09:00AM 30.4850 -89.4140 75° East 446 513 35,000  Level FlightAware
09:00AM 30.5060 -89.3240 75° East 447 514 35,000  Level FlightAware
09:01AM 30.5280 -89.2300 75° East 448 516 35,000  Level FlightAware
09:02AM 30.5520 -89.1260 75° East 448 516 35,000  Level FlightAware
09:03AM 30.5740 -89.0310 75° East 446 513 35,000  Level FlightAware
09:03AM 30.5950 -88.9360 76° East 445 512 35,000  Level FlightAware
09:04AM 30.6180 -88.8370 75° East 445 512 35,000  Level FlightAware
09:05AM 30.6390 -88.7430 75° East 445 512 35,000  Level FlightAware
09:05AM 30.6620 -88.6440 75° East 444 511 35,000  Level FlightAware
09:06AM 30.6850 -88.5430 75° East 443 510 35,000  Level FlightAware
09:07AM 30.7060 -88.4490 75° East 444 511 35,000  Level FlightAware
09:07AM 30.7260 -88.3490 77° East 441 507 35,000  Level FlightAware
09:08AM 30.7330 -88.2530 85° East 441 507 35,000  Level FlightAware
09:09AM 30.7400 -88.1490 85° East 443 510 35,000  Level FlightAware
09:10AM 30.7460 -88.0500 86° East 445 512 35,000  Level FlightAware
09:10AM 30.7520 -87.9500 86° East 446 513 35,000  Level FlightAware
09:11AM 30.7590 -87.8480 85° East 448 516 35,000  Level FlightAware
09:12AM 30.7650 -87.7490 86° East 450 518 35,000  Level FlightAware
09:12AM 30.7700 -87.6570 86° East 452 520 35,000  Level FlightAware
09:13AM 30.7770 -87.5550 85° East 453 521 35,000  Level FlightAware
09:14AM 30.7830 -87.4490 86° East 452 520 35,000  Level FlightAware
09:14AM 30.7890 -87.3460 86° East 453 521 35,000  Level FlightAware
09:15AM 30.7950 -87.2400 86° East 447 514 35,000  Level FlightAware
09:16AM 30.7910 -87.1490 93° East 437 503 35,000  Level FlightAware
09:16AM 30.7840 -87.0530 95° East 433 498 35,000  Level FlightAware
09:17AM 30.7770 -86.9660 95° East 432 497 35,000  Level FlightAware
09:18AM 30.7700 -86.8660 95° East 431 496 35,000  Level FlightAware
09:19AM 30.7620 -86.7690 95° East 430 495 35,000  Level FlightAware
09:19AM 30.7550 -86.6690 95° East 430 495 35,000  Level FlightAware
09:21AM 30.7420 -86.5040 95° East 430 495 35,000  Level FlightAware
09:21AM 30.7340 -86.3990 95° East 430 495 35,000  Level FlightAware
09:22AM 30.7270 -86.3160 96° East 427 491 35,000  Level FlightAware
09:23AM 30.7170 -86.1890 95° East 425 489 35,000  Level FlightAware
09:24AM 30.7050 -86.0510 96° East 422 486 35,000  Level FlightAware
09:25AM 30.6930 -85.8990 95° East 421 484 35,000  Level FlightAware
09:25AM 30.6950 -85.9220 276° West 421 484 35,000  Level FlightAware
09:26AM 30.6880 -85.8280 95° East 421 484 35,000  Level FlightAware
09:27AM 30.6810 -85.7400 95° East 421 484 35,000  Level FlightAware
09:28AM 30.6760 -85.6710 95° East 421 484 35,000  Level FlightAware
09:28AM 30.6690 -85.5790 95° East 421 484 35,000  Level FlightAware
09:29AM 30.6640 -85.5100 95° East 421 484 35,000  Level FlightAware
09:30AM 30.6570 -85.4180 95° East 421 484 35,000  Level FlightAware
09:31AM 30.6510 -85.3380 95° East 421 484 35,000  Level FlightAware
09:31AM 30.6460 -85.2690 95° East 421 484 35,000 -480 Level FlightAware
09:31AM 30.5710 -85.0490 112° Southeast 402 463 34,600 -1,140 Descending FlightAware
09:32AM 30.5070 -84.9490 127° Southeast 403 464 33,700 -960 Descending FlightAware
09:33AM 30.4630 -84.8800 126° Southeast 406 467 33,100 -1,020 Descending FlightAware
09:34AM 30.4180 -84.8100 127° Southeast 414 476 32,400 -1,020 Descending FlightAware
09:34AM 30.3680 -84.7320 127° Southeast 413 475 31,700 -960 Descending FlightAware
09:35AM 30.3210 -84.6590 127° Southeast 417 480 31,100 -540 Descending FlightAware
09:36AM 30.2660 -84.5780 128° Southeast 414 476 31,000 -120 Descending FlightAware
09:37AM 30.2180 -84.5260 137° Southeast 412 474 31,000  Level FlightAware
09:38AM 30.1260 -84.4320 139° Southeast 412 474 31,000  Level FlightAware
09:38AM 30.0830 -84.3870 138° Southeast 412 474 31,000  Level FlightAware
09:39AM 30.2180 -84.5260 318° Northwest 413 475 31,000  Level FlightAware
09:40AM 29.9470 -84.2470 138° Southeast 413 475 31,000  Level FlightAware
09:40AM 29.8990 -84.1970 138° Southeast 413 475 31,000  Level FlightAware
09:41AM 29.8540 -84.1500 138° Southeast 413 475 31,000  Level FlightAware
09:42AM 29.8050 -84.0990 138° Southeast 413 475 31,000  Level FlightAware
09:42AM 29.7480 -84.0400 138° Southeast 413 475 31,000  Level FlightAware
09:43AM 29.7030 -83.9940 138° Southeast 413 475 31,000  Level FlightAware
09:44AM 29.6450 -83.9340 138° Southeast 413 475 31,000  Level FlightAware
09:44AM 29.6030 -83.8900 138° Southeast 413 475 31,000  Level FlightAware
09:45AM 29.5510 -83.8360 138° Southeast 413 475 31,000  Level FlightAware
09:46AM 29.4940 -83.7780 138° Southeast 413 475 31,000  Level FlightAware
09:47AM 29.4510 -83.7330 138° Southeast 413 475 31,000 -2,520 Level FlightAware
09:47AM 29.3030 -83.5910 140° Southeast 367 422 27,700 -2,700 Descending FlightAware
09:48AM 29.2460 -83.5340 139° Southeast 358 412 27,000 -480 Descending FlightAware
09:49AM 29.1910 -83.4900 145° Southeast 353 406 27,000  Level FlightAware
09:49AM 29.1390 -83.4560 150° Southeast 353 406 27,000  Level FlightAware
09:50AM 29.0930 -83.4260 150° Southeast 353 406 27,000  Level FlightAware
09:51AM 29.0310 -83.3850 150° Southeast 353 406 27,000  Level FlightAware
09:51AM 28.9900 -83.3580 150° Southeast 353 406 27,000  Level FlightAware
09:52AM 28.9310 -83.3190 150° Southeast 353 406 27,000 -3,900 Level FlightAware
09:53AM 28.8450 -83.2710 154° Southeast 323 372 21,500 -4,380 Descending FlightAware
09:54AM 28.7680 -83.2220 151° Southeast 313 360 20,000 -1,560 Descending FlightAware
09:55AM 28.6860 -83.1700 151° Southeast 304 350 18,300 -1,500 Descending FlightAware
09:56AM 28.6270 -83.1330 151° Southeast 296 341 17,200 -1,320 Descending FlightAware
09:56AM 28.5790 -83.1030 151° Southeast 288 331 16,300 -1,020 Descending FlightAware
09:57AM 28.5150 -83.0630 151° Southeast 284 327 15,500 -1,380 Descending FlightAware
09:58AM 28.4850 -83.0090 122° Southeast 312 359 14,100 -2,160 Descending FlightAware
09:59AM 28.4830 -82.9490 92° East 328 377 12,800 -2,100 Descending FlightAware
09:59AM 28.4810 -82.8630 91° East 324 373 11,100 -2,100 Descending FlightAware
10:00AM 28.4800 -82.7980 91° East 319 367 9,800 -2,040 Descending FlightAware
10:00AM 28.4790 -82.7760 93° East 317 365 9,300 -2,220 Descending FlightAware
10:01AM 28.4760 -82.7350 95° East 304 350 8,400 -2,220 Descending FlightAware
10:01AM 28.4660 -82.7170 122° Southeast 287 330 8,000 -1,080 Descending FlightAware
10:02AM 28.4010 -82.6740 150° Southeast 246 283 7,100 -840 Descending FlightAware
10:02AM 28.3910 -82.6680 152° Southeast 242 278 7,000 -480 Descending FlightAware
10:03AM 28.3610 -82.6510 153° Southeast 227 261 6,800 -420 Descending FlightAware
10:03AM 28.3480 -82.6430 152° Southeast 224 258 6,700 -600 Descending FlightAware
10:03AM 28.3220 -82.6280 153° Southeast 219 252 6,400 -720 Descending FlightAware
10:04AM 28.3050 -82.6180 153° Southeast 210 242 6,100 -1,020 Descending FlightAware
10:04AM 28.2740 -82.6000 153° Southeast 195 224 5,500 -1,020 Descending FlightAware
10:05AM 28.2520 -82.5880 154° Southeast 183 211 5,100 -960 Descending FlightAware
10:05AM 28.2300 -82.5740 151° Southeast 174 200 4,600 -1,020 Descending FlightAware
10:06AM 28.2130 -82.5650 155° Southeast 173 199 4,200 -540 Descending FlightAware
10:06AM 28.1860 -82.5490 152° Southeast 172 198 4,000 -780 Descending FlightAware
10:07AM 28.1640 -82.5360 152° Southeast 143 165 3,300 -1,020 Descending FlightAware
10:07AM 28.1560 -82.5310 151° Southeast 140 161 3,100 -360 Descending FlightAware
10:08AM 28.1410 -82.5250 161° South 144 166 3,100 -600 Level FlightAware
10:08AM 28.1220 -82.5240 177° South 145 167 2,700 -780 Descending FlightAware
10:09AM 28.1030 -82.5240 180° South 136 157 2,400 -780 Descending FlightAware
10:09AM 28.0840 -82.5250 183° South 136 157 2,000 -780 Descending FlightAware
10:10AM 28.0660 -82.5260 183° South 127 146 1,700 -660 Descending FlightAware
10:10AM 28.0510 -82.5260 180° South 120 138 1,400 -660 Descending FlightAware
10:10AM 28.0350 -82.5260 180° South 134 154 1,100 -780 Descending FlightAware
10:11AM 28.0100 -82.5270 182° South 142 163 600 -480 Descending FlightAware
10:12AM 27.9870 -82.5280 182° South 145 167 500 -180 Descending FlightAware